sensor_id;sensor_type;location;lat;lon;timestamp;pressure;altitude;pressure_sealevel;temperature;humidity
50125;BME280;36023;48.670;6.184;2023-02-10T00:01:09;100933.50;;;14.72;31.38
50125;BME280;36023;48.670;6.184;2023-02-10T00:03:36;100940.44;;;14.72;31.35
50125;BME280;36023;48.670;6.184;2023-02-10T00:06:03;100940.44;;;14.72;31.39
50125;BME280;36023;48.670;6.184;2023-02-10T00:08:29;100942.19;;;14.71;31.36
50125;BME280;36023;48.670;6.184;2023-02-10T00:11:04;100947.41;;;14.71;31.27
50125;BME280;36023;48.670;6.184;2023-02-10T00:13:31;100941.34;;;14.71;31.21
50125;BME280;36023;48.670;6.184;2023-02-10T00:16:00;100939.59;;;14.71;31.33
50125;BME280;36023;48.670;6.184;2023-02-10T00:18:27;100924.78;;;14.70;31.14
50125;BME280;36023;48.670;6.184;2023-02-10T00:20:53;100925.66;;;14.69;31.30
50125;BME280;36023;48.670;6.184;2023-02-10T00:23:19;100936.13;;;14.68;31.24
50125;BME280;36023;48.670;6.184;2023-02-10T00:25:46;100940.44;;;14.69;31.13
50125;BME280;36023;48.670;6.184;2023-02-10T00:28:12;100938.72;;;14.68;30.84
50125;BME280;36023;48.670;6.184;2023-02-10T00:30:37;100939.59;;;14.67;31.05
50125;BME280;36023;48.670;6.184;2023-02-10T00:33:04;100944.81;;;14.67;31.15
50125;BME280;36023;48.670;6.184;2023-02-10T00:35:30;100950.91;;;14.66;31.18
50125;BME280;36023;48.670;6.184;2023-02-10T00:37:56;100949.19;;;14.65;31.05
50125;BME280;36023;48.670;6.184;2023-02-10T00:40:22;100955.28;;;14.65;31.06
50125;BME280;36023;48.670;6.184;2023-02-10T00:42:48;100956.16;;;14.64;31.06
50125;BME280;36023;48.670;6.184;2023-02-10T00:45:13;100946.59;;;14.63;31.05
50125;BME280;36023;48.670;6.184;2023-02-10T00:47:39;100956.16;;;14.64;31.05
50125;BME280;36023;48.670;6.184;2023-02-10T00:50:05;100951.81;;;14.63;30.96
50125;BME280;36023;48.670;6.184;2023-02-10T00:52:31;100955.28;;;14.62;30.97
50125;BME280;36023;48.670;6.184;2023-02-10T00:54:57;100961.38;;;14.61;31.10
50125;BME280;36023;48.670;6.184;2023-02-10T00:57:22;100959.63;;;14.62;30.84
50125;BME280;36023;48.670;6.184;2023-02-10T00:59:49;100959.63;;;14.60;30.96
50125;BME280;36023;48.670;6.184;2023-02-10T01:02:14;100966.59;;;14.60;30.87
50125;BME280;36023;48.670;6.184;2023-02-10T01:04:40;100971.81;;;14.60;30.92
50125;BME280;36023;48.670;6.184;2023-02-10T01:07:06;100966.59;;;14.60;30.87
50125;BME280;36023;48.670;6.184;2023-02-10T01:09:31;100974.44;;;14.58;30.94
50125;BME280;36023;48.670;6.184;2023-02-10T01:11:57;100974.44;;;14.58;30.92
50125;BME280;36023;48.670;6.184;2023-02-10T01:14:23;100973.56;;;14.58;30.74
50125;BME280;36023;48.670;6.184;2023-02-10T01:16:49;100975.31;;;14.57;30.79
50125;BME280;36023;48.670;6.184;2023-02-10T01:19:15;100975.31;;;14.56;30.73
50125;BME280;36023;48.670;6.184;2023-02-10T01:21:41;100983.16;;;14.56;30.86
50125;BME280;36023;48.670;6.184;2023-02-10T01:24:09;100979.66;;;14.55;30.87
50125;BME280;36023;48.670;6.184;2023-02-10T01:26:34;100983.13;;;14.54;30.74
50125;BME280;36023;48.670;6.184;2023-02-10T01:29:00;100976.19;;;14.53;30.74
50125;BME280;36023;48.670;6.184;2023-02-10T01:31:27;100977.06;;;14.54;30.80
50125;BME280;36023;48.670;6.184;2023-02-10T01:33:54;100985.75;;;14.53;30.79
50125;BME280;36023;48.670;6.184;2023-02-10T01:36:22;100983.16;;;14.53;30.84
50125;BME280;36023;48.670;6.184;2023-02-10T01:38:49;100984.03;;;14.52;30.83
50125;BME280;36023;48.670;6.184;2023-02-10T01:41:18;100982.31;;;14.51;30.67
50125;BME280;36023;48.670;6.184;2023-02-10T01:46:19;100977.09;;;14.49;30.71
50125;BME280;36023;48.670;6.184;2023-02-10T01:48:45;100981.44;;;14.48;30.77
50125;BME280;36023;48.670;6.184;2023-02-10T01:51:11;100981.44;;;14.48;30.70
50125;BME280;36023;48.670;6.184;2023-02-10T01:53:39;100986.66;;;14.48;30.68
50125;BME280;36023;48.670;6.184;2023-02-10T01:56:06;100986.66;;;14.48;30.71
50125;BME280;36023;48.670;6.184;2023-02-10T01:58:32;100986.66;;;14.48;30.58
50125;BME280;36023;48.670;6.184;2023-02-10T02:00:59;100991.88;;;14.48;30.79
50125;BME280;36023;48.670;6.184;2023-02-10T02:03:26;100989.25;;;14.47;30.56
50125;BME280;36023;48.670;6.184;2023-02-10T02:05:51;100978.81;;;14.47;30.76
50125;BME280;36023;48.670;6.184;2023-02-10T02:08:28;100989.25;;;14.47;30.56
50125;BME280;36023;48.670;6.184;2023-02-10T02:11:07;100978.84;;;14.45;30.67
50125;BME280;36023;48.670;6.184;2023-02-10T02:17:02;100992.75;;;14.46;30.69
50125;BME280;36023;48.670;6.184;2023-02-10T02:23:06;100982.28;;;14.44;30.59
50125;BME280;36023;48.670;6.184;2023-02-10T02:31:11;100985.78;;;14.42;30.58
50125;BME280;36023;48.670;6.184;2023-02-10T02:33:58;100982.31;;;14.41;30.57
50125;BME280;36023;48.670;6.184;2023-02-10T02:36:33;100987.53;;;14.41;30.58
50125;BME280;36023;48.670;6.184;2023-02-10T02:39:02;100993.63;;;14.42;30.57
50125;BME280;36023;48.670;6.184;2023-02-10T02:41:30;100990.16;;;14.40;30.47
50125;BME280;36023;48.670;6.184;2023-02-10T02:43:56;100992.75;;;14.40;30.60
50125;BME280;36023;48.670;6.184;2023-02-10T02:49:39;100997.06;;;14.39;30.52
50125;BME280;36023;48.670;6.184;2023-02-10T02:52:12;100992.75;;;14.38;30.54
50125;BME280;36023;48.670;6.184;2023-02-10T02:55:06;100995.38;;;14.37;30.37
50125;BME280;36023;48.670;6.184;2023-02-10T02:57:45;100991.00;;;14.37;30.46
50125;BME280;36023;48.670;6.184;2023-02-10T03:00:17;100989.28;;;14.36;30.41
50125;BME280;36023;48.670;6.184;2023-02-10T03:02:47;100981.47;;;14.35;30.46
50125;BME280;36023;48.670;6.184;2023-02-10T03:05:19;100981.47;;;14.35;30.10
50125;BME280;36023;48.670;6.184;2023-02-10T03:07:47;100981.47;;;14.35;30.40
50125;BME280;36023;48.670;6.184;2023-02-10T03:10:12;100992.78;;;14.34;30.33
50125;BME280;36023;48.670;6.184;2023-02-10T03:12:38;100985.84;;;14.33;30.46
50125;BME280;36023;48.670;6.184;2023-02-10T03:15:04;100991.91;;;14.33;30.33
50125;BME280;36023;48.670;6.184;2023-02-10T03:17:30;100995.41;;;14.32;30.28
50125;BME280;36023;48.670;6.184;2023-02-10T03:19:55;100992.81;;;14.32;30.32
50125;BME280;36023;48.670;6.184;2023-02-10T03:22:21;100982.34;;;14.31;30.35
50125;BME280;36023;48.670;6.184;2023-02-10T03:24:47;100987.56;;;14.31;30.41
50125;BME280;36023;48.670;6.184;2023-02-10T03:27:13;100991.91;;;14.30;30.34
50125;BME280;36023;48.670;6.184;2023-02-10T03:29:40;100984.97;;;14.29;30.28
50125;BME280;36023;48.670;6.184;2023-02-10T03:32:08;100984.97;;;14.29;30.27
50125;BME280;36023;48.670;6.184;2023-02-10T03:34:34;100977.16;;;14.28;30.34
50125;BME280;36023;48.670;6.184;2023-02-10T03:37:00;100978.91;;;14.27;30.40
50125;BME280;36023;48.670;6.184;2023-02-10T03:39:25;100991.06;;;14.28;30.19
50125;BME280;36023;48.670;6.184;2023-02-10T03:41:51;100991.94;;;14.27;30.17
50125;BME280;36023;48.670;6.184;2023-02-10T03:44:18;100992.81;;;14.26;30.49
50125;BME280;36023;48.670;6.184;2023-02-10T03:46:44;100998.03;;;14.26;30.18
50125;BME280;36023;48.670;6.184;2023-02-10T03:49:10;100996.31;;;14.25;30.44
50125;BME280;36023;48.670;6.184;2023-02-10T03:51:36;100997.19;;;14.24;30.17
50125;BME280;36023;48.670;6.184;2023-02-10T03:54:02;101001.50;;;14.23;30.36
50125;BME280;36023;48.670;6.184;2023-02-10T03:56:29;101003.25;;;14.23;30.15
50125;BME280;36023;48.670;6.184;2023-02-10T03:58:54;101005.84;;;14.23;30.36
50125;BME280;36023;48.670;6.184;2023-02-10T04:01:24;101009.31;;;14.23;30.16
50125;BME280;36023;48.670;6.184;2023-02-10T04:03:49;101019.75;;;14.22;30.39
50125;BME280;36023;48.670;6.184;2023-02-10T04:06:15;101011.94;;;14.20;30.16
50125;BME280;36023;48.670;6.184;2023-02-10T04:08:41;101017.16;;;14.20;30.22
50125;BME280;36023;48.670;6.184;2023-02-10T04:11:06;101019.75;;;14.20;30.27
50125;BME280;36023;48.670;6.184;2023-02-10T04:13:35;101032.78;;;14.20;30.20
50125;BME280;36023;48.670;6.184;2023-02-10T04:18:28;101033.66;;;14.19;30.15
50125;BME280;36023;48.670;6.184;2023-02-10T04:20:54;101038.03;;;14.19;30.27
50125;BME280;36023;48.670;6.184;2023-02-10T04:23:19;101036.28;;;14.19;30.18
50125;BME280;36023;48.670;6.184;2023-02-10T04:25:45;101038.00;;;14.20;30.17
50125;BME280;36023;48.670;6.184;2023-02-10T04:28:11;101045.84;;;14.19;30.13
50125;BME280;36023;48.670;6.184;2023-02-10T04:30:37;101045.84;;;14.19;30.13
50125;BME280;36023;48.670;6.184;2023-02-10T04:33:04;101048.44;;;14.17;30.10
50125;BME280;36023;48.670;6.184;2023-02-10T04:35:30;101047.59;;;14.17;30.12
50125;BME280;36023;48.670;6.184;2023-02-10T04:37:55;101036.31;;;14.16;30.49
50125;BME280;36023;48.670;6.184;2023-02-10T04:40:22;101044.13;;;14.16;30.18
50125;BME280;36023;48.670;6.184;2023-02-10T04:42:47;101045.81;;;14.16;30.20
50125;BME280;36023;48.670;6.184;2023-02-10T04:45:13;101038.00;;;14.16;30.24
50125;BME280;36023;48.670;6.184;2023-02-10T04:47:39;101055.38;;;14.15;30.25
50125;BME280;36023;48.670;6.184;2023-02-10T04:50:05;101049.31;;;14.15;30.29
50125;BME280;36023;48.670;6.184;2023-02-10T04:52:31;101044.97;;;14.14;30.11
50125;BME280;36023;48.670;6.184;2023-02-10T04:54:56;101050.19;;;14.14;30.04
50125;BME280;36023;48.670;6.184;2023-02-10T04:57:22;101051.94;;;14.13;30.06
50125;BME280;36023;48.670;6.184;2023-02-10T04:59:47;101059.75;;;14.13;30.01
50125;BME280;36023;48.670;6.184;2023-02-10T05:02:16;101063.22;;;14.14;30.17
50125;BME280;36023;48.670;6.184;2023-02-10T05:04:42;101059.75;;;14.13;30.15
50125;BME280;36023;48.670;6.184;2023-02-10T05:07:07;101063.22;;;14.12;29.98
50125;BME280;36023;48.670;6.184;2023-02-10T05:09:33;101063.22;;;14.11;30.02
50125;BME280;36023;48.670;6.184;2023-02-10T05:11:59;101068.44;;;14.11;30.00
50125;BME280;36023;48.670;6.184;2023-02-10T05:14:24;101061.50;;;14.10;29.97
50125;BME280;36023;48.670;6.184;2023-02-10T05:16:50;101065.84;;;14.09;29.99
50125;BME280;36023;48.670;6.184;2023-02-10T05:19:16;101071.06;;;14.09;30.04
50125;BME280;36023;48.670;6.184;2023-02-10T05:21:41;101070.19;;;14.09;30.39
50125;BME280;36023;48.670;6.184;2023-02-10T05:24:07;101073.63;;;14.08;30.03
50125;BME280;36023;48.670;6.184;2023-02-10T05:26:34;101071.06;;;14.06;29.99
50125;BME280;36023;48.670;6.184;2023-02-10T05:28:59;101071.91;;;14.07;30.02
50125;BME280;36023;48.670;6.184;2023-02-10T05:31:25;101075.41;;;14.06;29.89
50125;BME280;36023;48.670;6.184;2023-02-10T05:33:51;101081.47;;;14.06;30.02
50125;BME280;36023;48.670;6.184;2023-02-10T05:36:19;101078.88;;;14.05;30.25
50125;BME280;36023;48.670;6.184;2023-02-10T05:38:45;101080.63;;;14.03;30.19
50125;BME280;36023;48.670;6.184;2023-02-10T05:41:31;101084.94;;;14.07;30.44
50125;BME280;36023;48.670;6.184;2023-02-10T05:43:57;101086.66;;;14.14;30.76
50125;BME280;36023;48.670;6.184;2023-02-10T05:46:23;101094.44;;;14.23;30.78
50125;BME280;36023;48.670;6.184;2023-02-10T05:48:48;101096.19;;;14.33;30.76
50125;BME280;36023;48.670;6.184;2023-02-10T05:51:14;101095.28;;;14.42;30.73
50125;BME280;36023;48.670;6.184;2023-02-10T05:53:40;101107.44;;;14.52;30.66
50125;BME280;36023;48.670;6.184;2023-02-10T05:56:06;101099.59;;;14.60;30.72
50125;BME280;36023;48.670;6.184;2023-02-10T05:58:33;101099.53;;;14.67;30.68
50125;BME280;36023;48.670;6.184;2023-02-10T06:00:59;101105.59;;;14.74;30.64
50125;BME280;36023;48.670;6.184;2023-02-10T06:03:26;101109.94;;;14.80;30.51
50125;BME280;36023;48.670;6.184;2023-02-10T06:05:52;101111.63;;;14.85;30.51
50125;BME280;36023;48.670;6.184;2023-02-10T06:08:17;101109.88;;;14.89;30.51
50125;BME280;36023;48.670;6.184;2023-02-10T06:10:43;101116.81;;;14.93;30.41
50125;BME280;36023;48.670;6.184;2023-02-10T06:13:09;101118.53;;;14.98;30.28
50125;BME280;36023;48.670;6.184;2023-02-10T06:15:34;101120.25;;;15.02;30.34
50125;BME280;36023;48.670;6.184;2023-02-10T06:18:00;101119.34;;;15.07;30.25
50125;BME280;36023;48.670;6.184;2023-02-10T06:20:26;101121.09;;;15.11;30.23
50125;BME280;36023;48.670;6.184;2023-02-10T06:22:51;101117.56;;;15.13;30.26
50125;BME280;36023;48.670;6.184;2023-02-10T06:25:17;101115.78;;;15.17;30.25
50125;BME280;36023;48.670;6.184;2023-02-10T06:27:43;101106.25;;;15.19;30.16
50125;BME280;36023;48.670;6.184;2023-02-10T06:30:09;101107.06;;;15.22;30.11
50125;BME280;36023;48.670;6.184;2023-02-10T06:32:36;101104.44;;;15.27;30.02
50125;BME280;36023;48.670;6.184;2023-02-10T06:35:02;101101.81;;;15.28;30.14
50125;BME280;36023;48.670;6.184;2023-02-10T06:37:28;101106.13;;;15.32;29.92
50125;BME280;36023;48.670;6.184;2023-02-10T06:39:54;101105.25;;;15.37;29.95
50125;BME280;36023;48.670;6.184;2023-02-10T06:42:19;101109.56;;;15.39;29.92
50125;BME280;36023;48.670;6.184;2023-02-10T06:44:45;101106.06;;;15.42;29.83
50125;BME280;36023;48.670;6.184;2023-02-10T06:47:11;101103.44;;;15.45;29.75
50125;BME280;36023;48.670;6.184;2023-02-10T06:49:36;101106.88;;;15.47;29.82
50125;BME280;36023;48.670;6.184;2023-02-10T06:52:02;101107.78;;;15.46;29.75
50125;BME280;36023;48.670;6.184;2023-02-10T06:54:28;101119.06;;;15.48;29.75
50125;BME280;36023;48.670;6.184;2023-02-10T06:56:54;101121.69;;;15.46;29.74
50125;BME280;36023;48.670;6.184;2023-02-10T06:59:20;101115.63;;;15.44;29.76
50125;BME280;36023;48.670;6.184;2023-02-10T07:01:46;101119.13;;;15.43;29.61
50125;BME280;36023;48.670;6.184;2023-02-10T07:04:12;101115.66;;;15.41;29.74
50125;BME280;36023;48.670;6.184;2023-02-10T07:06:38;101120.00;;;15.39;29.70
50125;BME280;36023;48.670;6.184;2023-02-10T07:09:05;101125.22;;;15.39;29.72
50125;BME280;36023;48.670;6.184;2023-02-10T07:11:31;101127.00;;;15.37;29.57
50125;BME280;36023;48.670;6.184;2023-02-10T07:13:57;101124.41;;;15.34;29.83
50125;BME280;36023;48.670;6.184;2023-02-10T07:16:23;101127.88;;;15.31;29.64
50125;BME280;36023;48.670;6.184;2023-02-10T07:18:49;101132.28;;;15.28;29.64
50125;BME280;36023;48.670;6.184;2023-02-10T07:21:14;101126.19;;;15.23;29.62
50125;BME280;36023;48.670;6.184;2023-02-10T07:23:41;101132.34;;;15.19;29.71
50125;BME280;36023;48.670;6.184;2023-02-10T07:26:09;101133.22;;;15.18;29.68
50125;BME280;36023;48.670;6.184;2023-02-10T07:28:37;101134.94;;;15.19;29.72
50125;BME280;36023;48.670;6.184;2023-02-10T07:31:04;101135.81;;;15.19;29.77
50125;BME280;36023;48.670;6.184;2023-02-10T07:33:29;101142.75;;;15.22;29.92
50125;BME280;36023;48.670;6.184;2023-02-10T07:35:59;101140.13;;;15.26;29.83
50125;BME280;36023;48.670;6.184;2023-02-10T07:38:26;101140.97;;;15.30;29.96
50125;BME280;36023;48.670;6.184;2023-02-10T07:40:51;101138.34;;;15.33;29.84
50125;BME280;36023;48.670;6.184;2023-02-10T07:43:17;101137.44;;;15.37;29.76
50125;BME280;36023;48.670;6.184;2023-02-10T07:45:46;101140.00;;;15.40;29.78
50125;BME280;36023;48.670;6.184;2023-02-10T07:48:12;101144.34;;;15.44;29.74
50125;BME280;36023;48.670;6.184;2023-02-10T07:50:37;101137.34;;;15.46;29.71
50125;BME280;36023;48.670;6.184;2023-02-10T07:53:03;101138.22;;;15.47;29.65
50125;BME280;36023;48.670;6.184;2023-02-10T07:55:29;101135.63;;;15.47;29.57
50125;BME280;36023;48.670;6.184;2023-02-10T07:57:54;101130.41;;;15.47;29.58
50125;BME280;36023;48.670;6.184;2023-02-10T08:00:20;101129.53;;;15.46;29.66
50125;BME280;36023;48.670;6.184;2023-02-10T08:02:48;101134.78;;;15.45;29.66
50125;BME280;36023;48.670;6.184;2023-02-10T08:05:14;101131.28;;;15.44;29.81
50125;BME280;36023;48.670;6.184;2023-02-10T08:07:40;101143.47;;;15.44;29.80
50125;BME280;36023;48.670;6.184;2023-02-10T08:10:06;101132.19;;;15.42;29.87
50125;BME280;36023;48.670;6.184;2023-02-10T08:12:32;101137.41;;;15.40;29.84
50125;BME280;36023;48.670;6.184;2023-02-10T08:14:58;101140.88;;;15.39;29.82
50125;BME280;36023;48.670;6.184;2023-02-10T08:17:23;101140.03;;;15.37;29.67
50125;BME280;36023;48.670;6.184;2023-02-10T08:19:49;101146.19;;;15.33;29.80
50125;BME280;36023;48.670;6.184;2023-02-10T08:22:15;101147.06;;;15.29;30.61
50125;BME280;36023;48.670;6.184;2023-02-10T08:24:40;101143.56;;;15.33;31.65
50125;BME280;36023;48.670;6.184;2023-02-10T08:27:06;101151.38;;;15.35;31.84
50125;BME280;36023;48.670;6.184;2023-02-10T08:29:32;101149.66;;;15.30;32.00
50125;BME280;36023;48.670;6.184;2023-02-10T08:31:59;101155.78;;;15.28;32.28
50125;BME280;36023;48.670;6.184;2023-02-10T08:34:25;101154.03;;;15.24;32.61
50125;BME280;36023;48.670;6.184;2023-02-10T08:36:51;101152.34;;;15.20;32.85
50125;BME280;36023;48.670;6.184;2023-02-10T08:39:17;101154.94;;;15.17;33.18
50125;BME280;36023;48.670;6.184;2023-02-10T08:41:43;101156.69;;;15.16;33.75
50125;BME280;36023;48.670;6.184;2023-02-10T08:44:10;101153.19;;;15.22;34.34
50125;BME280;36023;48.670;6.184;2023-02-10T08:46:36;101160.09;;;15.30;34.76
50125;BME280;36023;48.670;6.184;2023-02-10T08:49:02;101154.84;;;15.37;35.07
50125;BME280;36023;48.670;6.184;2023-02-10T08:51:28;101159.16;;;15.44;35.38
50125;BME280;36023;48.670;6.184;2023-02-10T08:53:56;101157.38;;;15.50;35.49
50125;BME280;36023;48.670;6.184;2023-02-10T08:56:22;101166.88;;;15.56;35.66
50125;BME280;36023;48.670;6.184;2023-02-10T08:58:48;101166.00;;;15.60;35.91
50125;BME280;36023;48.670;6.184;2023-02-10T09:01:18;101163.41;;;15.62;35.82
50125;BME280;36023;48.670;6.184;2023-02-10T09:03:44;101158.19;;;15.65;35.85
50125;BME280;36023;48.670;6.184;2023-02-10T09:06:19;101164.25;;;15.65;36.02
50125;BME280;36023;48.670;6.184;2023-02-10T09:08:46;101170.34;;;15.66;35.95
50125;BME280;36023;48.670;6.184;2023-02-10T09:11:14;101163.41;;;15.65;35.95
50125;BME280;36023;48.670;6.184;2023-02-10T09:13:40;101164.22;;;15.70;35.83
50125;BME280;36023;48.670;6.184;2023-02-10T09:16:06;101172.06;;;15.68;35.80
50125;BME280;36023;48.670;6.184;2023-02-10T09:18:31;101154.69;;;15.63;35.86
50125;BME280;36023;48.670;6.184;2023-02-10T09:20:58;101168.63;;;15.58;35.73
50125;BME280;36023;48.670;6.184;2023-02-10T09:23:24;101166.06;;;15.52;35.81
50125;BME280;36023;48.670;6.184;2023-02-10T09:25:57;101164.34;;;15.47;35.94
50125;BME280;36023;48.670;6.184;2023-02-10T09:28:23;101163.50;;;15.40;35.89
50125;BME280;36023;48.670;6.184;2023-02-10T09:30:49;101168.78;;;15.36;36.05
50125;BME280;36023;48.670;6.184;2023-02-10T09:33:17;101167.06;;;15.30;36.05
50125;BME280;36023;48.670;6.184;2023-02-10T09:35:43;101176.66;;;15.28;35.99
50125;BME280;36023;48.670;6.184;2023-02-10T09:38:09;101173.22;;;15.21;35.98
50125;BME280;36023;48.670;6.184;2023-02-10T09:41:03;101169.75;;;15.16;36.02
50125;BME280;36023;48.670;6.184;2023-02-10T09:53:57;101169.84;;;14.98;36.37
50125;BME280;36023;48.670;6.184;2023-02-10T09:56:24;101177.66;;;14.99;36.40
50125;BME280;36023;48.670;6.184;2023-02-10T09:58:57;101175.94;;;14.98;36.44
50125;BME280;36023;48.670;6.184;2023-02-10T10:01:24;101181.16;;;14.98;36.45
50125;BME280;36023;48.670;6.184;2023-02-10T10:04:04;101173.34;;;14.97;36.54
50125;BME280;36023;48.670;6.184;2023-02-10T10:06:38;101175.94;;;14.98;36.73
50125;BME280;36023;48.670;6.184;2023-02-10T10:14:05;101180.25;;;15.05;36.76
50125;BME280;36023;48.670;6.184;2023-02-10T10:19:50;101183.66;;;15.15;36.61
50125;BME280;36023;48.670;6.184;2023-02-10T10:22:21;101185.41;;;15.18;36.62
50125;BME280;36023;48.670;6.184;2023-02-10T10:30:48;101190.63;;;15.16;36.40
50125;BME280;36023;48.670;6.184;2023-02-10T10:33:24;101194.13;;;15.14;36.29
50125;BME280;36023;48.670;6.184;2023-02-10T10:35:50;101195.00;;;15.10;36.01
50125;BME280;36023;48.670;6.184;2023-02-10T10:38:25;101195.91;;;15.04;36.17
50125;BME280;36023;48.670;6.184;2023-02-10T10:40:57;101190.72;;;15.02;36.22
50125;BME280;36023;48.670;6.184;2023-02-10T10:43:28;101191.56;;;15.01;36.09
50125;BME280;36023;48.670;6.184;2023-02-10T10:46:30;101190.69;;;14.99;36.02
50125;BME280;36023;48.670;6.184;2023-02-10T10:48:59;101187.25;;;14.97;36.03
50125;BME280;36023;48.670;6.184;2023-02-10T10:51:25;101191.59;;;14.97;36.15
50125;BME280;36023;48.670;6.184;2023-02-10T10:53:55;101192.47;;;14.96;36.16
50125;BME280;36023;48.670;6.184;2023-02-10T10:56:43;101182.91;;;14.96;36.24
50125;BME280;36023;48.670;6.184;2023-02-10T10:59:20;101175.97;;;14.95;36.24
50125;BME280;36023;48.670;6.184;2023-02-10T11:01:49;101175.09;;;14.95;36.22
50125;BME280;36023;48.670;6.184;2023-02-10T11:04:17;101175.09;;;14.95;36.23
50125;BME280;36023;48.670;6.184;2023-02-10T11:06:47;101175.94;;;14.94;36.24
50125;BME280;36023;48.670;6.184;2023-02-10T11:09:23;101177.69;;;14.93;36.26
50125;BME280;36023;48.670;6.184;2023-02-10T11:11:51;101174.19;;;14.93;36.11
50125;BME280;36023;48.670;6.184;2023-02-10T11:14:23;101173.34;;;14.91;36.08
50125;BME280;36023;48.670;6.184;2023-02-10T11:16:52;101165.53;;;14.89;36.18
50125;BME280;36023;48.670;6.184;2023-02-10T11:19:21;101165.53;;;14.89;36.03
50125;BME280;36023;48.670;6.184;2023-02-10T11:21:47;101156.84;;;14.89;36.13
50125;BME280;36023;48.670;6.184;2023-02-10T11:27:11;101156.84;;;14.87;35.99
50125;BME280;36023;48.670;6.184;2023-02-10T11:29:54;101161.19;;;14.88;36.21
50125;BME280;36023;48.670;6.184;2023-02-10T11:34:57;101153.34;;;14.91;36.62
50125;BME280;36023;48.670;6.184;2023-02-10T11:37:36;101149.88;;;14.95;36.81
50125;BME280;36023;48.670;6.184;2023-02-10T11:40:19;101158.53;;;14.99;37.00
50125;BME280;36023;48.670;6.184;2023-02-10T11:42:51;101148.94;;;15.04;37.21
50125;BME280;36023;48.670;6.184;2023-02-10T11:45:21;101152.38;;;15.09;37.80
50125;BME280;36023;48.670;6.184;2023-02-10T11:47:47;101141.91;;;15.17;38.25
50125;BME280;36023;48.670;6.184;2023-02-10T11:50:24;101141.03;;;15.19;38.20
50125;BME280;36023;48.670;6.184;2023-02-10T11:52:50;101138.38;;;15.24;38.60
50125;BME280;36023;48.670;6.184;2023-02-10T11:55:16;101135.75;;;15.27;38.85
50125;BME280;36023;48.670;6.184;2023-02-10T11:58:49;101135.72;;;15.33;39.06
50125;BME280;36023;48.670;6.184;2023-02-10T12:04:01;101138.25;;;15.41;39.24
50125;BME280;36023;48.670;6.184;2023-02-10T12:06:47;101137.41;;;15.42;39.18
50125;BME280;36023;48.670;6.184;2023-02-10T12:09:27;101135.66;;;15.42;39.24
50125;BME280;36023;48.670;6.184;2023-02-10T12:12:05;101129.56;;;15.43;39.23
50125;BME280;36023;48.670;6.184;2023-02-10T12:14:56;101132.19;;;15.43;39.03
50125;BME280;36023;48.670;6.184;2023-02-10T12:17:27;101133.03;;;15.44;39.02
50125;BME280;36023;48.670;6.184;2023-02-10T12:22:57;101130.41;;;15.45;38.79
50125;BME280;36023;48.670;6.184;2023-02-10T12:28:14;101126.94;;;15.43;38.80
50125;BME280;36023;48.670;6.184;2023-02-10T12:31:11;101127.84;;;15.42;38.74
50125;BME280;36023;48.670;6.184;2023-02-10T12:36:42;101133.94;;;15.41;38.65
50125;BME280;36023;48.670;6.184;2023-02-10T12:39:21;101147.00;;;15.41;38.47
50125;BME280;36023;48.670;6.184;2023-02-10T12:45:02;101126.97;;;15.42;38.17
50125;BME280;36023;48.670;6.184;2023-02-10T12:50:46;101130.44;;;15.39;37.94
50125;BME280;36023;48.670;6.184;2023-02-10T12:53:23;101133.97;;;15.37;38.00
50125;BME280;36023;48.670;6.184;2023-02-10T12:56:01;101137.47;;;15.34;38.04
50125;BME280;36023;48.670;6.184;2023-02-10T12:58:36;101131.38;;;15.33;37.75
50125;BME280;36023;48.670;6.184;2023-02-10T13:01:32;101132.25;;;15.29;37.82
50125;BME280;36023;48.670;6.184;2023-02-10T13:06:50;101126.19;;;15.24;37.64
50125;BME280;36023;48.670;6.184;2023-02-10T13:09:23;101120.13;;;15.21;37.47
50125;BME280;36023;48.670;6.184;2023-02-10T13:14:41;101114.94;;;15.18;37.46
50125;BME280;36023;48.670;6.184;2023-02-10T13:17:09;101115.81;;;15.15;37.29
50125;BME280;36023;48.670;6.184;2023-02-10T13:22:42;101099.31;;;15.12;37.36
50125;BME280;36023;48.670;6.184;2023-02-10T13:25:15;101098.47;;;15.11;37.30
50125;BME280;36023;48.670;6.184;2023-02-10T13:27:55;101097.56;;;15.09;37.23
50125;BME280;36023;48.670;6.184;2023-02-10T13:33:21;101115.00;;;15.07;37.39
50125;BME280;36023;48.670;6.184;2023-02-10T13:35:51;101114.13;;;15.07;37.19
50125;BME280;36023;48.670;6.184;2023-02-10T13:38:19;101124.59;;;15.05;37.12
50125;BME280;36023;48.670;6.184;2023-02-10T13:40:54;101120.25;;;15.04;37.18
50125;BME280;36023;48.670;6.184;2023-02-10T13:43:41;101116.78;;;15.02;36.95
50125;BME280;36023;48.670;6.184;2023-02-10T13:46:20;101112.44;;;14.99;37.02
50125;BME280;36023;48.670;6.184;2023-02-10T13:48:52;101115.06;;;14.98;36.92
50125;BME280;36023;48.670;6.184;2023-02-10T13:51:29;101117.69;;;14.96;37.16
50125;BME280;36023;48.670;6.184;2023-02-10T13:53:57;101120.28;;;14.96;37.37
50125;BME280;36023;48.670;6.184;2023-02-10T13:56:34;101119.41;;;14.96;37.14
50125;BME280;36023;48.670;6.184;2023-02-10T13:59:44;101111.59;;;14.94;37.02
50125;BME280;36023;48.670;6.184;2023-02-10T14:04:38;101115.06;;;14.96;37.06
50125;BME280;36023;48.670;6.184;2023-02-10T14:07:35;101097.66;;;14.98;36.87
50125;BME280;36023;48.670;6.184;2023-02-10T14:10:28;101118.59;;;14.89;36.75
50125;BME280;36023;48.670;6.184;2023-02-10T14:18:25;101108.13;;;14.86;37.22
50125;BME280;36023;48.670;6.184;2023-02-10T14:21:05;101107.28;;;14.86;37.28
50125;BME280;36023;48.670;6.184;2023-02-10T14:23:35;101105.56;;;14.88;37.40
50125;BME280;36023;48.670;6.184;2023-02-10T14:26:05;101108.09;;;14.94;37.33
50125;BME280;36023;48.670;6.184;2023-02-10T14:28:38;101101.09;;;15.00;37.31